Time;durP1;ratioP1;P1;durP2;ratioP2;P2;SDS_P1;SDS_P2;PMS_P1;PMS_P2;Temp;Humidity;BMP_temperature;BMP_pressure;BME280_temperature;BME280_humidity;BME280_pressure;Samples;Min_cycle;Max_cycle;Signal;HPM_P1;HPM_P2
2022/12/05 00:01:39;;;;;;;8.15;5.33;;;24.50;91.90;;;;;;1841578;77;21182;-82
2022/12/05 00:04:12;;;;;;;11.63;6.17;;;24.50;91.70;;;;;;1838894;77;21229;-82
2022/12/05 00:06:44;;;;;;;10.10;5.05;;;24.50;91.60;;;;;;1881841;75;21128;-82
2022/12/05 00:09:15;;;;;;;15.00;8.78;;;24.50;91.60;;;;;;1890745;75;21143;-83
2022/12/05 00:11:46;;;;;;;16.07;11.28;;;24.50;91.60;;;;;;1883566;75;21206;-83
2022/12/05 00:14:18;;;;;;;9.80;7.00;;;24.60;91.60;;;;;;1881435;75;21181;-82
2022/12/05 00:16:49;;;;;;;10.10;6.47;;;24.50;91.60;;;;;;1878268;75;21128;-82
2022/12/05 00:19:20;;;;;;;9.03;4.65;;;24.60;91.50;;;;;;1816577;77;21238;-82
2022/12/05 00:21:51;;;;;;;7.17;5.03;;;24.60;91.40;;;;;;1821159;77;21106;-81
2022/12/05 00:24:21;;;;;;;8.85;3.75;;;24.60;91.30;;;;;;1824304;77;21065;-82
2022/12/05 00:26:53;;;;;;;10.58;4.05;;;24.60;91.20;;;;;;1819897;77;21121;-83
2022/12/05 00:29:25;;;;;;;9.03;4.75;;;24.70;91.30;;;;;;1820493;77;21158;-84
2022/12/05 00:31:58;;;;;;;10.70;4.92;;;24.70;91.40;;;;;;1894980;75;21140;-82
2022/12/05 00:34:29;;;;;;;8.58;4.25;;;24.80;91.30;;;;;;1834618;77;21148;-82
2022/12/05 00:37:00;;;;;;;8.20;4.95;;;24.80;91.20;;;;;;1825423;77;21149;-82
2022/12/05 00:39:31;;;;;;;9.58;4.97;;;24.80;91.20;;;;;;1828403;77;21129;-82
2022/12/05 00:42:01;;;;;;;8.70;5.60;;;24.80;91.20;;;;;;1828140;77;21145;-83
2022/12/05 00:44:32;;;;;;;9.33;5.42;;;24.90;91.10;;;;;;1813755;78;21205;-82
2022/12/05 00:47:09;;;;;;;5.83;4.30;;;24.90;91.10;;;;;;1875777;75;21127;-81
2022/12/05 00:49:42;;;;;;;6.28;4.75;;;25.00;91.00;;;;;;1881835;75;21058;-81
2022/12/05 00:52:16;;;;;;;8.40;5.25;;;25.00;91.00;;;;;;1877941;75;21516;-81
2022/12/05 00:55:02;;;;;;;8.03;5.03;;;25.00;90.90;;;;;;1836238;77;21213;-81
2022/12/05 00:57:28;;;;;;;8.23;4.70;;;25.00;90.90;;;;;;1826874;77;21119;-81
2022/12/05 00:59:55;;;;;;;8.00;5.45;;;25.10;90.80;;;;;;1805642;77;21118;-81
2022/12/05 01:02:26;;;;;;;7.00;4.95;;;25.10;90.80;;;;;;1852092;76;21701;-80
2022/12/05 01:04:57;;;;;;;8.90;5.80;;;25.20;90.80;;;;;;1846765;76;21257;-80
2022/12/05 01:07:29;;;;;;;8.48;4.45;;;25.20;90.60;;;;;;1897647;74;21150;-67
2022/12/05 01:10:00;;;;;;;7.78;4.47;;;25.30;90.40;;;;;;1901626;74;21247;-65
2022/12/05 01:12:31;;;;;;;8.33;5.42;;;25.30;90.40;;;;;;1889956;74;21122;-68
2022/12/05 01:15:02;;;;;;;8.80;4.87;;;25.30;90.30;;;;;;1905422;74;21135;-68
2022/12/05 01:17:34;;;;;;;10.88;4.10;;;25.30;90.20;;;;;;1905909;73;21107;-68
2022/12/05 01:20:09;;;;;;;7.92;4.42;;;25.30;90.30;;;;;;1900787;74;21154;-68
2022/12/05 01:22:39;;;;;;;6.97;4.20;;;25.30;90.40;;;;;;1898365;74;21083;-67
2022/12/05 01:25:10;;;;;;;8.75;5.00;;;25.40;90.60;;;;;;1890237;74;21535;-68
2022/12/05 01:27:41;;;;;;;9.35;6.55;;;25.50;90.60;;;;;;1887540;74;21214;-68
2022/12/05 01:30:16;;;;;;;6.83;3.55;;;25.50;90.50;;;;;;1900428;74;21208;-66
2022/12/05 01:32:47;;;;;;;8.45;4.35;;;25.50;90.40;;;;;;1897699;74;21190;-66
2022/12/05 01:35:21;;;;;;;7.05;4.00;;;25.50;90.30;;;;;;1888642;74;21091;-66
2022/12/05 01:37:53;;;;;;;5.83;3.50;;;25.50;90.20;;;;;;1909777;74;21158;-66
2022/12/05 01:40:24;;;;;;;9.03;5.35;;;25.50;90.10;;;;;;1842410;76;21562;-67
2022/12/05 01:43:00;;;;;;;7.40;4.50;;;25.50;90.20;;;;;;1894075;74;21146;-67
2022/12/05 01:45:40;;;;;;;7.17;4.35;;;25.60;90.10;;;;;;1886293;74;21124;-66
2022/12/05 01:48:20;;;;;;;8.53;5.12;;;25.60;90.20;;;;;;1891050;74;21664;-67
2022/12/05 01:50:51;;;;;;;4.53;2.75;;;25.60;90.20;;;;;;1888657;74;21166;-68
2022/12/05 01:53:23;;;;;;;4.92;3.10;;;25.70;90.00;;;;;;1843964;76;21240;-68
2022/12/05 01:55:55;;;;;;;7.65;2.72;;;25.70;90.00;;;;;;1860112;76;21100;-67
2022/12/05 01:58:30;;;;;;;4.08;2.50;;;25.70;90.00;;;;;;1888997;74;21119;-68
2022/12/05 02:01:01;;;;;;;3.87;1.98;;;25.80;89.40;;;;;;1888208;74;21609;-69
2022/12/05 02:03:33;;;;;;;4.80;2.35;;;25.80;88.90;;;;;;1878644;74;21990;-68
2022/12/05 02:06:06;;;;;;;5.83;3.67;;;25.90;88.80;;;;;;1874751;74;21194;-69
2022/12/05 02:08:37;;;;;;;4.28;2.00;;;25.90;89.00;;;;;;1875810;74;21151;-68
2022/12/05 02:11:09;;;;;;;2.77;1.95;;;26.00;87.50;;;;;;1852022;76;21136;-68
2022/12/05 02:14:05;;;;;;;5.08;2.95;;;26.10;87.70;;;;;;1853298;75;21724;-69
2022/12/05 02:16:50;;;;;;;5.03;2.65;;;26.10;87.90;;;;;;1851525;75;21753;-67
2022/12/05 02:19:49;;;;;;;5.83;2.47;;;26.10;87.70;;;;;;1844106;75;21129;-68
2022/12/05 02:22:45;;;;;;;5.78;3.08;;;26.20;87.60;;;;;;1850981;75;21651;-65
2022/12/05 02:25:48;;;;;;;;;;;;;;;;;;;;;
2022/12/05 02:28:53;;;;;;;4.62;2.83;;;26.30;87.00;;;;;;1872037;75;21309;-66
2022/12/05 02:31:54;;;;;;;5.22;3.08;;;26.30;86.80;;;;;;1869013;75;21141;-67
2022/12/05 02:34:31;;;;;;;5.00;2.45;;;26.40;86.80;;;;;;1879549;75;21549;-66
2022/12/05 02:37:07;;;;;;;4.28;2.27;;;26.40;86.80;;;;;;1861932;75;21123;-67
2022/12/05 02:39:52;;;;;;;8.18;2.15;;;26.50;86.90;;;;;;1862318;75;21264;-67
2022/12/05 02:42:26;;;;;;;2.87;1.85;;;26.40;86.20;;;;;;1871752;75;21131;-67
2022/12/05 02:44:59;;;;;;;3.47;1.82;;;26.50;85.50;;;;;;1859308;75;21159;-67
2022/12/05 02:47:32;;;;;;;4.08;2.00;;;26.50;85.30;;;;;;1826309;77;21162;-66
2022/12/05 02:50:04;;;;;;;2.50;1.60;;;26.50;85.10;;;;;;1877005;75;21883;-67
2022/12/05 02:52:35;;;;;;;2.98;1.80;;;26.50;85.10;;;;;;1854107;75;21115;-66
2022/12/05 02:55:09;;;;;;;5.12;2.00;;;26.50;85.30;;;;;;1858366;75;21143;-67
2022/12/05 02:57:41;;;;;;;4.47;1.90;;;26.60;85.30;;;;;;1913696;73;21119;-66
2022/12/05 03:00:13;;;;;;;5.20;1.72;;;26.70;85.20;;;;;;1904162;73;21100;-68
2022/12/05 03:02:45;;;;;;;3.95;1.82;;;26.80;84.80;;;;;;1910769;73;21264;-66
2022/12/05 03:05:19;;;;;;;4.90;2.00;;;26.80;84.50;;;;;;1918271;73;21142;-68
2022/12/05 03:07:52;;;;;;;3.70;1.55;;;26.80;84.40;;;;;;1917219;73;21151;-67
2022/12/05 03:10:25;;;;;;;3.58;1.95;;;26.90;83.90;;;;;;1907065;73;21211;-68
2022/12/05 03:12:59;;;;;;;5.72;1.95;;;27.00;83.70;;;;;;1911060;73;21174;-67
2022/12/05 03:15:32;;;;;;;4.45;1.60;;;27.10;83.30;;;;;;1877005;75;21145;-66
2022/12/05 03:18:05;;;;;;;3.62;1.98;;;27.20;83.50;;;;;;1906304;73;22043;-66
2022/12/05 03:20:51;;;;;;;5.60;2.35;;;27.20;83.60;;;;;;1911309;73;21127;-66
2022/12/05 03:23:24;;;;;;;4.65;2.00;;;27.30;83.50;;;;;;1908946;73;21217;-67
2022/12/05 03:26:00;;;;;;;3.55;1.95;;;27.50;83.20;;;;;;1917813;73;21595;-66
2022/12/05 03:28:37;;;;;;;;;;;27.50;82.70;;;;;;1923450;73;21189;-65
2022/12/05 03:31:09;;;;;;;5.95;2.40;;;27.60;82.80;;;;;;1902123;73;20193;-67
2022/12/05 03:33:46;;;;;;;6.55;2.10;;;27.60;82.60;;;;;;1836978;76;21463;-66
2022/12/05 03:36:19;;;;;;;3.83;2.58;;;27.70;81.90;;;;;;1827409;77;21131;-68
2022/12/05 03:38:53;;;;;;;5.55;2.50;;;27.70;82.00;;;;;;1830814;77;21152;-66
2022/12/05 03:41:29;;;;;;;5.85;2.77;;;27.80;82.80;;;;;;1878602;75;21118;-66
2022/12/05 03:44:14;;;;;;;5.37;2.40;;;27.80;81.90;;;;;;1919596;73;21130;-67
2022/12/05 03:46:53;;;;;;;6.35;2.72;;;27.80;81.70;;;;;;1912300;73;21657;-66
2022/12/05 03:49:42;;;;;;;6.15;2.72;;;27.90;81.20;;;;;;1906215;73;21415;-65
2022/12/05 03:52:24;;;;;;;6.75;3.47;;;28.00;81.50;;;;;;1911467;73;21171;-67
2022/12/05 03:54:59;;;;;;;4.67;2.40;;;28.00;81.70;;;;;;1924805;73;21064;-66
2022/12/05 03:57:33;;;;;;;3.65;1.95;;;28.00;80.40;;;;;;1915122;73;21198;-67
2022/12/05 04:00:12;;;;;;;6.12;2.50;;;28.00;80.20;;;;;;1914067;73;21179;-67
2022/12/05 04:02:51;;;;;;;4.10;2.35;;;28.00;80.50;;;;;;1921755;73;21173;-68
2022/12/05 04:05:33;;;;;;;3.42;1.80;;;28.00;80.20;;;;;;1910619;73;21077;-66
2022/12/05 04:08:07;;;;;;;5.50;2.30;;;28.00;80.00;;;;;;1918163;73;21241;-67
2022/12/05 04:10:49;;;;;;;4.33;2.25;;;28.10;80.20;;;;;;1898656;73;21080;-66
2022/12/05 04:13:40;;;;;;;5.20;2.10;;;28.20;79.80;;;;;;1868777;75;21155;-66
2022/12/05 04:19:11;;;;;;;4.25;2.10;;;28.40;80.00;;;;;;1880934;75;21191;-66
2022/12/05 04:21:47;;;;;;;3.80;1.98;;;28.50;78.80;;;;;;1863795;75;21141;-67
2022/12/05 04:27:11;;;;;;;2.77;1.57;;;28.70;77.90;;;;;;1870209;75;21096;-67
2022/12/05 04:29:48;;;;;;;3.17;1.90;;;28.80;77.90;;;;;;1884255;76;21185;-67
2022/12/05 04:32:22;;;;;;;3.60;1.95;;;28.80;77.60;;;;;;1865664;74;21855;-66
2022/12/05 04:34:57;;;;;;;3.52;2.20;;;28.80;77.60;;;;;;1878949;76;21161;-67
2022/12/05 04:37:30;;;;;;;3.45;1.85;;;28.80;77.50;;;;;;1880952;76;21091;-66
2022/12/05 04:40:03;;;;;;;5.40;1.87;;;28.90;77.50;;;;;;1878642;74;21644;-66
2022/12/05 04:42:36;;;;;;;4.20;2.27;;;28.90;77.30;;;;;;1875396;76;21233;-67
2022/12/05 04:45:10;;;;;;;4.87;2.15;;;28.90;77.60;;;;;;1877335;76;21184;-67
2022/12/05 04:47:44;;;;;;;3.72;2.15;;;28.90;77.60;;;;;;1882010;76;21092;-68
2022/12/05 04:50:16;;;;;;;4.33;2.05;;;29.00;77.10;;;;;;1879087;74;21220;-67
2022/12/05 04:52:49;;;;;;;3.22;1.75;;;29.00;77.30;;;;;;1878978;74;21506;-67
2022/12/05 04:55:25;;;;;;;3.33;1.92;;;29.10;77.30;;;;;;1891911;74;21115;-67
2022/12/05 04:58:11;;;;;;;3.55;1.90;;;29.10;77.20;;;;;;1882831;76;21150;-67
2022/12/05 05:00:53;;;;;;;4.17;2.22;;;29.10;76.90;;;;;;1882750;74;21244;-67
2022/12/05 05:03:27;;;;;;;3.98;1.90;;;29.10;76.80;;;;;;1875458;74;21214;-67
2022/12/05 05:05:59;;;;;;;5.15;2.15;;;29.10;76.70;;;;;;1875461;76;21606;-67
2022/12/05 05:08:30;;;;;;;3.52;1.98;;;29.20;76.20;;;;;;1861294;76;21089;-66
2022/12/05 05:11:21;;;;;;;4.65;2.05;;;29.30;76.80;;;;;;1864783;75;21183;-65
2022/12/05 05:13:53;;;;;;;6.62;2.33;;;29.30;76.30;;;;;;1862725;76;21126;-66
2022/12/05 05:16:29;;;;;;;3.77;1.87;;;29.30;76.30;;;;;;1926339;73;21165;-68
2022/12/05 05:19:01;;;;;;;4.08;1.90;;;29.40;75.40;;;;;;1861362;76;21100;-68
2022/12/05 05:21:38;;;;;;;4.10;1.75;;;29.60;75.60;;;;;;1885178;74;21476;-66
2022/12/05 05:24:10;;;;;;;6.95;2.30;;;29.70;75.50;;;;;;1882958;74;21502;-67
2022/12/05 05:26:44;;;;;;;3.52;2.10;;;29.80;74.70;;;;;;1883582;76;21196;-66
2022/12/05 05:29:15;;;;;;;4.33;2.12;;;30.00;73.90;;;;;;1846834;76;21171;-67
2022/12/05 05:31:46;;;;;;;5.03;2.42;;;30.10;73.40;;;;;;1862674;75;21183;-65
2022/12/05 05:34:19;;;;;;;4.10;1.80;;;30.30;73.60;;;;;;1855504;75;21131;-67
2022/12/05 05:36:52;;;;;;;3.22;1.65;;;30.40;72.70;;;;;;1851904;77;21733;-67
2022/12/05 05:39:23;;;;;;;8.60;2.22;;;30.50;72.60;;;;;;1852970;77;21175;-67
2022/12/05 05:41:54;;;;;;;5.62;1.95;;;30.50;73.40;;;;;;1857668;75;21123;-65
2022/12/05 05:44:24;;;;;;;4.78;1.95;;;30.60;72.10;;;;;;1847544;77;21128;-66
2022/12/05 05:46:55;;;;;;;5.45;1.82;;;30.60;71.60;;;;;;1780511;79;21139;-66
2022/12/05 05:49:26;;;;;;;4.55;1.70;;;30.70;70.40;;;;;;1886597;74;21143;-67
2022/12/05 05:51:57;;;;;;;2.67;1.52;;;30.60;70.80;;;;;;1843934;75;21092;-66
2022/12/05 05:54:28;;;;;;;2.98;1.87;;;30.60;71.10;;;;;;1864513;75;21138;-67
2022/12/05 05:56:59;;;;;;;3.70;1.87;;;30.60;71.50;;;;;;1855474;75;21138;-66
2022/12/05 05:59:30;;;;;;;3.87;1.72;;;30.50;71.20;;;;;;1877912;75;21079;-66
2022/12/05 06:02:01;;;;;;;4.37;1.60;;;30.50;71.20;;;;;;1805926;78;21142;-65
2022/12/05 06:04:32;;;;;;;2.80;1.50;;;30.50;71.90;;;;;;1856513;76;21166;-66
2022/12/05 06:07:03;;;;;;;3.45;1.52;;;30.40;72.20;;;;;;1866121;74;21119;-66
2022/12/05 06:09:34;;;;;;;3.83;1.92;;;30.40;72.30;;;;;;1873694;76;21217;-66
2022/12/05 06:12:06;;;;;;;3.80;1.57;;;30.30;72.00;;;;;;1873819;74;21224;-66
2022/12/05 06:14:37;;;;;;;3.92;1.60;;;30.30;71.80;;;;;;1874936;76;21091;-66
2022/12/05 06:17:11;;;;;;;3.40;1.40;;;30.30;71.80;;;;;;1869138;76;21244;-66
2022/12/05 06:19:41;;;;;;;4.10;1.52;;;30.30;72.00;;;;;;1877130;75;21511;-65
2022/12/05 06:22:15;;;;;;;5.25;1.90;;;30.40;71.70;;;;;;1884459;74;21646;-66
2022/12/05 06:24:45;;;;;;;3.62;1.70;;;30.40;71.60;;;;;;1880406;75;21223;-66
2022/12/05 06:27:16;;;;;;;3.65;1.90;;;30.50;70.80;;;;;;1874552;75;21154;-67
2022/12/05 06:29:47;;;;;;;3.80;1.82;;;30.60;71.30;;;;;;1895833;73;21244;-66
2022/12/05 06:32:18;;;;;;;3.10;1.52;;;30.60;70.40;;;;;;1910594;73;21171;-67
2022/12/05 06:34:49;;;;;;;5.85;2.00;;;30.70;70.90;;;;;;1859366;75;21201;-66
2022/12/05 06:37:20;;;;;;;4.00;1.72;;;30.70;69.20;;;;;;1857672;76;21124;-67
2022/12/05 06:39:52;;;;;;;2.80;1.60;;;30.70;69.40;;;;;;1871319;75;21130;-68
2022/12/05 06:42:22;;;;;;;3.42;2.08;;;30.70;69.80;;;;;;1909112;73;21236;-68
2022/12/05 06:44:53;;;;;;;3.65;1.60;;;30.70;70.20;;;;;;1912989;73;21127;-69
2022/12/05 06:47:24;;;;;;;4.03;1.60;;;30.70;70.20;;;;;;1865180;75;21130;-67
2022/12/05 06:49:55;;;;;;;4.92;1.70;;;30.80;70.00;;;;;;1852540;76;21643;-67
2022/12/05 06:52:26;;;;;;;3.90;1.40;;;30.90;68.40;;;;;;1830461;77;21117;-67
2022/12/05 06:54:58;;;;;;;3.10;1.52;;;31.00;68.60;;;;;;1910467;73;21140;-67
2022/12/05 06:57:32;;;;;;;2.72;1.60;;;31.00;68.00;;;;;;1907575;73;21234;-67
2022/12/05 07:02:53;;;;;;;2.85;1.32;;;31.00;68.20;;;;;;1847608;76;21263;-66
2022/12/05 07:05:24;;;;;;;4.15;1.90;;;31.00;68.10;;;;;;1879318;75;21115;-68
2022/12/05 07:07:55;;;;;;;5.97;2.50;;;31.00;69.10;;;;;;1921265;73;21149;-67
2022/12/05 07:10:26;;;;;;;5.22;1.90;;;31.00;68.40;;;;;;1916314;73;21692;-67
2022/12/05 07:12:56;;;;;;;4.03;1.80;;;31.10;67.60;;;;;;1916140;73;21190;-66
2022/12/05 07:15:27;;;;;;;5.05;1.40;;;31.10;68.20;;;;;;1914812;73;21548;-66
2022/12/05 07:17:58;;;;;;;3.10;1.47;;;31.20;67.40;;;;;;1911383;73;21167;-67
2022/12/05 07:20:29;;;;;;;4.15;1.30;;;31.30;67.40;;;;;;1920781;73;21154;-67
2022/12/05 07:23:04;;;;;;;3.17;1.27;;;31.30;66.00;;;;;;1866488;75;21495;-68
2022/12/05 07:25:36;;;;;;;3.77;1.20;;;31.20;65.60;;;;;;1851920;76;21202;-66
2022/12/05 07:28:09;;;;;;;3.58;1.40;;;31.30;65.50;;;;;;1829266;77;21137;-67
2022/12/05 07:30:45;;;;;;;1.92;1.10;;;31.20;65.50;;;;;;1862018;75;21277;-65
2022/12/05 07:33:16;;;;;;;2.95;1.52;;;31.20;66.30;;;;;;1838383;76;21646;-67
2022/12/05 07:35:47;;;;;;;2.00;1.30;;;31.20;65.70;;;;;;1877801;76;22228;-67
2022/12/05 07:38:18;;;;;;;2.87;1.62;;;31.20;65.80;;;;;;1824629;77;21113;-66
2022/12/05 07:41:13;;;;;;;4.80;1.12;;;31.10;65.80;;;;;;1919041;73;21636;-66
2022/12/05 07:43:44;;;;;;;9.95;1.35;;;31.00;65.80;;;;;;1960856;71;21122;-67
2022/12/05 07:46:16;;;;;;;3.47;1.77;;;31.00;66.00;;;;;;1946980;72;21038;-66
2022/12/05 07:48:48;;;;;;;3.30;1.10;;;31.00;66.70;;;;;;1880519;75;21191;-66
2022/12/05 07:51:20;;;;;;;2.87;1.60;;;31.00;66.80;;;;;;1949134;72;21047;-67
2022/12/05 07:53:51;;;;;;;2.70;1.20;;;31.00;66.70;;;;;;1919796;73;21156;-66
2022/12/05 07:56:22;;;;;;;2.00;1.20;;;31.00;66.10;;;;;;1951764;72;21106;-66
2022/12/05 07:58:53;;;;;;;3.40;1.20;;;31.00;66.50;;;;;;1951667;72;21235;-66
2022/12/05 08:01:28;;;;;;;4.95;1.50;;;31.10;66.90;;;;;;1933485;72;21081;-67
2022/12/05 08:04:00;;;;;;;2.35;1.35;;;31.10;66.90;;;;;;1876562;75;21140;-67
2022/12/05 08:06:33;;;;;;;2.17;1.20;;;31.10;66.50;;;;;;1949837;72;21147;-66
2022/12/05 08:09:04;;;;;;;3.58;1.35;;;31.10;66.50;;;;;;1955361;72;21589;-66
2022/12/05 08:11:35;;;;;;;2.50;1.40;;;31.10;66.40;;;;;;1968257;71;21675;-65
2022/12/05 08:14:08;;;;;;;6.17;1.50;;;31.00;66.10;;;;;;1957021;72;21129;-66
2022/12/05 08:16:38;;;;;;;2.87;1.20;;;31.00;66.20;;;;;;1947108;72;21090;-66
2022/12/05 08:19:15;;;;;;;3.08;1.50;;;31.00;66.00;;;;;;1960639;72;21116;-67
2022/12/05 08:21:46;;;;;;;3.40;1.20;;;31.00;66.60;;;;;;1898380;74;21149;-66
2022/12/05 08:24:17;;;;;;;4.65;1.65;;;31.00;66.50;;;;;;1951745;72;21121;-66
2022/12/05 08:26:48;;;;;;;5.80;3.33;;;30.90;66.80;;;;;;1922516;73;21221;-67
2022/12/05 08:29:21;;;;;;;3.33;1.75;;;30.90;66.90;;;;;;1963627;72;21238;-67
2022/12/05 08:31:52;;;;;;;6.97;1.60;;;30.90;67.20;;;;;;1958396;72;21197;-67
2022/12/05 08:34:24;;;;;;;3.90;1.50;;;30.90;67.10;;;;;;1955407;72;21162;-67
2022/12/05 08:36:54;;;;;;;4.75;1.67;;;30.90;67.00;;;;;;1961878;72;21137;-67
2022/12/05 08:39:26;;;;;;;2.55;1.40;;;31.00;67.20;;;;;;1964174;72;21130;-66
2022/12/05 08:41:58;;;;;;;3.62;1.20;;;31.00;67.50;;;;;;1903604;73;21134;-66
2022/12/05 08:44:28;;;;;;;3.65;1.20;;;30.90;67.30;;;;;;1907492;73;21099;-66
2022/12/05 08:46:59;;;;;;;2.50;1.20;;;30.90;67.40;;;;;;1883690;75;21080;-67
2022/12/05 08:49:31;;;;;;;3.10;1.55;;;30.80;67.40;;;;;;1917724;73;21672;-67
2022/12/05 08:52:02;;;;;;;3.83;1.45;;;30.80;67.80;;;;;;1900354;74;21244;-66
2022/12/05 08:54:33;;;;;;;2.72;1.60;;;30.80;67.10;;;;;;1885265;75;21612;-66
2022/12/05 08:57:09;;;;;;;3.62;1.90;;;30.80;66.80;;;;;;1913677;74;21131;-67
2022/12/05 08:59:39;;;;;;;2.72;1.40;;;30.80;67.20;;;;;;1875928;76;21730;-67
2022/12/05 09:02:13;;;;;;;4.35;1.65;;;30.80;67.60;;;;;;1875345;76;22007;-66
2022/12/05 09:04:44;;;;;;;7.33;1.60;;;30.70;67.80;;;;;;1930145;73;21208;-66
2022/12/05 09:09:57;;;;;;;4.08;2.00;;;30.70;68.20;;;;;;1876646;75;21619;-65
2022/12/05 09:12:32;;;;;;;3.52;1.90;;;30.70;68.00;;;;;;1909361;73;21219;-65
2022/12/05 09:15:05;;;;;;;3.42;1.77;;;30.70;67.80;;;;;;1941656;73;21139;-67
2022/12/05 09:17:40;;;;;;;5.40;1.80;;;30.70;68.30;;;;;;1929959;73;21131;-66
2022/12/05 09:20:12;;;;;;;16.65;3.25;;;30.70;67.90;;;;;;1942463;73;21151;-66
2022/12/05 09:22:47;;;;;;;3.35;1.85;;;30.70;68.00;;;;;;1886569;75;21278;-65
2022/12/05 09:25:19;;;;;;;4.83;1.87;;;30.60;67.90;;;;;;1874280;76;21704;-65
2022/12/05 09:28:02;;;;;;;3.75;1.82;;;30.70;67.90;;;;;;1861875;75;21135;-65
2022/12/05 09:30:37;;;;;;;6.60;2.05;;;30.60;68.10;;;;;;1916489;73;21081;-66
2022/12/05 09:33:16;;;;;;;6.40;2.30;;;30.60;68.60;;;;;;1843345;76;21207;-65
2022/12/05 09:35:45;;;;;;;3.15;1.95;;;30.60;68.70;;;;;;1884245;75;21599;-65
2022/12/05 09:38:16;;;;;;;4.92;2.02;;;30.50;68.30;;;;;;1882657;75;21561;-65
2022/12/05 09:40:50;;;;;;;3.35;2.08;;;30.50;68.40;;;;;;1882720;75;21110;-67
2022/12/05 09:43:27;;;;;;;3.83;2.37;;;30.40;68.00;;;;;;1862268;76;21156;-66
2022/12/05 09:46:16;;;;;;;3.72;2.10;;;30.40;67.70;;;;;;1898127;74;21139;-66
2022/12/05 09:48:51;;;;;;;3.40;2.02;;;30.30;68.40;;;;;;1883644;75;21119;-67
2022/12/05 09:51:23;;;;;;;3.83;1.92;;;30.30;68.80;;;;;;1875611;75;21203;-67
2022/12/05 09:53:54;;;;;;;5.62;3.20;;;30.20;68.80;;;;;;1899037;75;21182;-66
2022/12/05 09:56:30;;;;;;;4.03;2.20;;;30.10;69.30;;;;;;1921000;74;21087;-67
2022/12/05 09:59:09;;;;;;;3.70;2.10;;;30.10;69.00;;;;;;1907364;74;21722;-66
2022/12/05 10:01:45;;;;;;;4.30;2.15;;;30.00;69.30;;;;;;1885549;74;21107;-66
2022/12/05 10:04:19;;;;;;;;;;;30.00;69.10;;;;;;1899112;74;21113;-66
2022/12/05 10:07:09;;;;;;;5.87;2.22;;;29.90;69.80;;;;;;1948502;73;20187;-65
2022/12/05 10:10:15;;;;;;;5.78;2.00;;;29.90;69.70;;;;;;1887122;75;21332;-65
2022/12/05 10:12:56;;;;;;;3.22;1.82;;;29.90;69.70;;;;;;1888089;74;21128;-67
2022/12/05 10:15:46;;;;;;;3.47;1.82;;;29.80;70.20;;;;;;1899077;74;21093;-67
2022/12/05 10:18:37;;;;;;;4.33;2.05;;;29.80;69.60;;;;;;1901659;74;21096;-66
2022/12/05 10:21:20;;;;;;;13.43;3.10;;;29.80;70.00;;;;;;1957480;73;21202;-65
2022/12/05 10:24:02;;;;;;;6.70;2.87;;;29.70;69.90;;;;;;1907179;74;21602;-67
2022/12/05 10:26:38;;;;;;;11.95;5.95;;;29.70;69.90;;;;;;1905370;74;21114;-66
2022/12/05 10:29:17;;;;;;;7.08;4.30;;;29.70;70.40;;;;;;1896728;75;21171;-66
2022/12/05 10:31:49;;;;;;;5.85;3.55;;;29.60;70.50;;;;;;1879631;75;21079;-67
2022/12/05 10:34:28;;;;;;;7.45;3.62;;;29.60;70.70;;;;;;1877880;75;21721;-66
2022/12/05 10:37:04;;;;;;;8.48;3.00;;;29.50;70.60;;;;;;1889243;76;21126;-65
2022/12/05 10:39:35;;;;;;;7.15;3.10;;;29.50;70.90;;;;;;1854257;76;21128;-65
2022/12/05 10:42:13;;;;;;;5.03;2.55;;;29.50;71.40;;;;;;1860997;75;21163;-65
2022/12/05 10:44:43;;;;;;;5.58;2.83;;;29.40;71.50;;;;;;1844511;75;21132;-66
2022/12/05 10:47:15;;;;;;;6.00;3.22;;;29.40;71.60;;;;;;1830544;78;21105;-66
2022/12/05 10:49:46;;;;;;;8.78;3.58;;;29.40;71.90;;;;;;1905230;74;21584;-66
2022/12/05 10:52:17;;;;;;;5.75;3.17;;;29.30;72.10;;;;;;1867613;77;21146;-65
2022/12/05 10:54:51;;;;;;;7.08;2.92;;;29.30;72.30;;;;;;1854302;75;21134;-65
2022/12/05 10:57:29;;;;;;;5.53;3.25;;;29.30;72.50;;;;;;1879802;76;21221;-66
2022/12/05 11:00:13;;;;;;;6.30;3.55;;;29.20;72.90;;;;;;1924306;73;21133;-66
2022/12/05 11:02:45;;;;;;;7.17;3.52;;;29.20;73.10;;;;;;1968805;72;21759;-66
2022/12/05 11:05:27;;;;;;;7.15;3.45;;;29.20;73.40;;;;;;1958810;72;21062;-65
2022/12/05 11:08:00;;;;;;;7.67;3.35;;;29.20;73.50;;;;;;1951251;72;21573;-66
2022/12/05 11:10:39;;;;;;;6.58;3.40;;;29.20;73.70;;;;;;1945739;72;21561;-65
2022/12/05 11:13:18;;;;;;;10.32;3.80;;;29.10;73.80;;;;;;1946540;73;22143;-67
2022/12/05 11:15:51;;;;;;;8.73;3.75;;;29.10;74.00;;;;;;1936853;73;21136;-65
2022/12/05 11:18:33;;;;;;;7.62;3.75;;;29.00;74.20;;;;;;1941937;72;21102;-66
2022/12/05 11:21:18;;;;;;;8.15;4.08;;;29.00;74.40;;;;;;1887508;74;21133;-64
2022/12/05 11:23:49;;;;;;;8.95;4.20;;;29.00;74.60;;;;;;1898902;74;21204;-65
2022/12/05 11:26:36;;;;;;;13.20;4.50;;;29.00;74.80;;;;;;1892128;75;21088;-65
2022/12/05 11:29:13;;;;;;;10.18;4.67;;;28.90;74.90;;;;;;1872589;75;21094;-65
2022/12/05 11:31:46;;;;;;;13.13;4.55;;;28.90;76.00;;;;;;1880626;75;21081;-65
2022/12/05 11:34:23;;;;;;;9.08;4.75;;;28.90;75.50;;;;;;1898781;74;21389;-65
2022/12/05 11:37:00;;;;;;;7.42;4.00;;;28.90;75.80;;;;;;1869399;75;21143;-65
2022/12/05 11:39:33;;;;;;;7.75;4.17;;;29.00;75.80;;;;;;1865544;75;21214;-67
2022/12/05 11:42:25;;;;;;;9.20;4.70;;;29.00;75.80;;;;;;1897968;74;21248;-67
2022/12/05 11:45:13;;;;;;;10.10;5.58;;;29.00;75.90;;;;;;1949978;72;21119;-67
2022/12/05 11:48:21;;;;;;;12.78;7.37;;;29.00;75.90;;;;;;1950198;72;21154;-67
2022/12/05 11:51:15;;;;;;;10.23;6.65;;;29.00;76.00;;;;;;1932519;73;21140;-66
2022/12/05 11:53:57;;;;;;;11.08;6.20;;;29.00;75.90;;;;;;1949327;72;21138;-66
2022/12/05 11:56:37;;;;;;;10.15;6.37;;;29.00;76.10;;;;;;1902921;74;21658;-68
2022/12/05 11:59:19;;;;;;;13.15;7.42;;;29.00;75.90;;;;;;1922782;73;21512;-66
2022/12/05 12:01:52;;;;;;;15.15;7.37;;;29.00;75.80;;;;;;1929824;73;21089;-67
2022/12/05 12:04:38;;;;;;;14.15;7.60;;;29.00;75.80;;;;;;1945055;72;21208;-66
2022/12/05 12:07:20;;;;;;;13.55;7.92;;;29.00;75.70;;;;;;1941307;73;21111;-68
2022/12/05 12:10:04;;;;;;;14.50;8.70;;;29.00;75.80;;;;;;1938370;73;21407;-67
2022/12/05 12:13:00;;;;;;;16.62;8.08;;;29.00;75.70;;;;;;1925864;73;21190;-66
2022/12/05 12:15:43;;;;;;;13.18;8.33;;;29.00;76.20;;;;;;1944941;73;21120;-67
2022/12/05 12:18:50;;;;;;;18.32;9.88;;;29.00;76.50;;;;;;1929823;73;21681;-66
2022/12/05 12:21:32;;;;;;;20.37;9.75;;;28.90;76.50;;;;;;1937838;74;21127;-68
2022/12/05 12:24:41;;;;;;;16.32;9.88;;;28.90;76.70;;;;;;1925627;73;21183;-66
2022/12/05 12:27:43;;;;;;;15.53;8.70;;;28.90;77.10;;;;;;1954146;73;21061;-67
2022/12/05 12:30:17;;;;;;;14.03;7.70;;;28.80;77.30;;;;;;1908370;74;21136;-67
2022/12/05 12:33:02;;;;;;;16.60;7.47;;;28.80;77.40;;;;;;1881482;76;21083;-67
2022/12/05 12:35:38;;;;;;;16.15;7.80;;;28.80;77.50;;;;;;1903984;74;21113;-66
2022/12/05 12:38:21;;;;;;;16.37;7.78;;;28.80;77.70;;;;;;1855103;76;21404;-67
2022/12/05 12:41:09;;;;;;;11.50;7.05;;;28.70;77.80;;;;;;1918172;73;21620;-67
2022/12/05 12:44:04;;;;;;;15.78;8.50;;;28.70;77.80;;;;;;1899838;74;21746;-66
2022/12/05 12:46:56;;;;;;;13.95;8.20;;;28.70;77.90;;;;;;1947770;72;21199;-67
2022/12/05 12:52:29;;;;;;;15.53;8.38;;;28.70;78.30;;;;;;1917742;73;21081;-67
2022/12/05 12:55:12;;;;;;;;;;;28.70;78.50;;;;;;1923589;74;21256;-66
2022/12/05 12:58:08;;;;;;;12.95;7.85;;;28.60;78.50;;;;;;1911750;74;20200;-68
2022/12/05 13:01:03;;;;;;;14.20;7.78;;;28.60;78.70;;;;;;1921381;73;21611;-67
2022/12/05 13:03:49;;;;;;;15.75;8.38;;;28.60;78.90;;;;;;1918291;73;21064;-69
2022/12/05 13:06:28;;;;;;;15.83;8.18;;;28.60;79.20;;;;;;1944972;72;21564;-68
2022/12/05 13:08:59;;;;;;;;;;;28.50;79.30;;;;;;1861825;76;21171;-68
2022/12/05 13:11:33;;;;;;;16.37;8.08;;;28.50;79.10;;;;;;1869724;75;20223;-68
2022/12/05 13:14:06;;;;;;;15.68;8.53;;;28.50;79.60;;;;;;1923502;73;21132;-67
2022/12/05 13:16:39;;;;;;;18.35;9.03;;;28.50;79.80;;;;;;1936692;72;21092;-68
2022/12/05 13:19:25;;;;;;;15.75;9.35;;;28.40;79.80;;;;;;1886664;74;21093;-68
2022/12/05 13:21:58;;;;;;;18.02;8.65;;;28.40;80.20;;;;;;1884875;75;21179;-66
2022/12/05 13:24:35;;;;;;;13.55;7.22;;;28.40;79.30;;;;;;1919564;73;21135;-66
2022/12/05 13:27:09;;;;;;;16.35;6.60;;;28.30;78.80;;;;;;1929681;73;21210;-67
2022/12/05 13:29:42;;;;;;;17.30;7.25;;;28.30;78.50;;;;;;1914914;73;21167;-67
2022/12/05 13:32:31;;;;;;;11.68;6.62;;;28.20;78.80;;;;;;1910440;74;21143;-67
2022/12/05 13:35:14;;;;;;;12.80;6.37;;;28.10;79.00;;;;;;1913678;74;21221;-68
2022/12/05 13:43:30;;;;;;;14.35;6.30;;;28.00;78.90;;;;;;1904747;75;21070;-68
2022/12/05 13:46:12;;;;;;;11.63;6.22;;;27.90;79.00;;;;;;1902409;75;21591;-66
2022/12/05 13:48:46;;;;;;;9.05;6.40;;;27.80;79.10;;;;;;1907617;74;21102;-67
2022/12/05 13:51:34;;;;;;;13.72;6.40;;;27.80;79.30;;;;;;1897468;75;21766;-67
2022/12/05 13:54:16;;;;;;;10.72;6.50;;;27.70;79.50;;;;;;1908143;75;21641;-66